sensor_id;sensor_type;location;lat;lon;timestamp;P1;durP1;ratioP1;P2;durP2;ratioP2
11064;SDS011;5585;52.530;7.320;2023-04-15T00:01:20;4.95;;;4.05;;
11064;SDS011;5585;52.530;7.320;2023-04-15T00:03:49;4.05;;;3.47;;
11064;SDS011;5585;52.530;7.320;2023-04-15T00:06:16;3.90;;;3.50;;
11064;SDS011;5585;52.530;7.320;2023-04-15T00:08:43;5.53;;;3.73;;
11064;SDS011;5585;52.530;7.320;2023-04-15T00:11:10;5.03;;;3.73;;
11064;SDS011;5585;52.530;7.320;2023-04-15T00:13:36;4.13;;;3.67;;
11064;SDS011;5585;52.530;7.320;2023-04-15T00:16:04;4.13;;;3.73;;
11064;SDS011;5585;52.530;7.320;2023-04-15T00:18:33;4.40;;;4.00;;
11064;SDS011;5585;52.530;7.320;2023-04-15T00:20:59;4.90;;;3.67;;
11064;SDS011;5585;52.530;7.320;2023-04-15T00:23:26;5.63;;;4.10;;
11064;SDS011;5585;52.530;7.320;2023-04-15T00:25:53;4.27;;;3.87;;
11064;SDS011;5585;52.530;7.320;2023-04-15T00:28:19;4.50;;;3.40;;
11064;SDS011;5585;52.530;7.320;2023-04-15T00:30:46;5.53;;;4.00;;
11064;SDS011;5585;52.530;7.320;2023-04-15T00:33:13;4.57;;;3.57;;
11064;SDS011;5585;52.530;7.320;2023-04-15T00:35:41;4.20;;;3.43;;
11064;SDS011;5585;52.530;7.320;2023-04-15T00:38:08;4.00;;;3.43;;
11064;SDS011;5585;52.530;7.320;2023-04-15T00:40:35;4.57;;;3.90;;
11064;SDS011;5585;52.530;7.320;2023-04-15T00:43:03;4.47;;;4.07;;
11064;SDS011;5585;52.530;7.320;2023-04-15T00:45:29;5.63;;;3.73;;
11064;SDS011;5585;52.530;7.320;2023-04-15T00:47:57;4.57;;;3.83;;
11064;SDS011;5585;52.530;7.320;2023-04-15T00:50:24;4.67;;;3.67;;
11064;SDS011;5585;52.530;7.320;2023-04-15T00:52:52;4.07;;;3.67;;
11064;SDS011;5585;52.530;7.320;2023-04-15T00:55:19;3.77;;;3.37;;
11064;SDS011;5585;52.530;7.320;2023-04-15T00:57:45;4.17;;;3.60;;
11064;SDS011;5585;52.530;7.320;2023-04-15T01:00:12;4.63;;;3.60;;
11064;SDS011;5585;52.530;7.320;2023-04-15T01:02:39;3.67;;;3.23;;
11064;SDS011;5585;52.530;7.320;2023-04-15T01:05:06;4.87;;;4.03;;
11064;SDS011;5585;52.530;7.320;2023-04-15T01:07:32;4.33;;;3.60;;
11064;SDS011;5585;52.530;7.320;2023-04-15T01:10:02;4.77;;;3.83;;
11064;SDS011;5585;52.530;7.320;2023-04-15T01:12:30;4.23;;;3.30;;
11064;SDS011;5585;52.530;7.320;2023-04-15T01:14:57;5.47;;;4.27;;
11064;SDS011;5585;52.530;7.320;2023-04-15T01:17:24;5.53;;;3.70;;
11064;SDS011;5585;52.530;7.320;2023-04-15T01:19:51;4.00;;;3.60;;
11064;SDS011;5585;52.530;7.320;2023-04-15T01:22:18;4.93;;;4.00;;
11064;SDS011;5585;52.530;7.320;2023-04-15T01:24:46;4.20;;;3.80;;
11064;SDS011;5585;52.530;7.320;2023-04-15T01:27:16;6.00;;;4.20;;
11064;SDS011;5585;52.530;7.320;2023-04-15T01:29:43;4.80;;;3.67;;
11064;SDS011;5585;52.530;7.320;2023-04-15T01:32:10;5.47;;;3.73;;
11064;SDS011;5585;52.530;7.320;2023-04-15T01:34:36;4.37;;;3.80;;
11064;SDS011;5585;52.530;7.320;2023-04-15T01:37:03;5.13;;;4.07;;
11064;SDS011;5585;52.530;7.320;2023-04-15T01:39:29;4.30;;;3.87;;
11064;SDS011;5585;52.530;7.320;2023-04-15T01:41:56;4.90;;;3.83;;
11064;SDS011;5585;52.530;7.320;2023-04-15T01:44:24;5.50;;;3.80;;
11064;SDS011;5585;52.530;7.320;2023-04-15T01:46:51;5.27;;;4.07;;
11064;SDS011;5585;52.530;7.320;2023-04-15T01:49:18;5.03;;;3.60;;
11064;SDS011;5585;52.530;7.320;2023-04-15T01:51:45;6.50;;;4.20;;
11064;SDS011;5585;52.530;7.320;2023-04-15T01:54:11;5.23;;;4.50;;
11064;SDS011;5585;52.530;7.320;2023-04-15T01:56:38;5.53;;;3.70;;
11064;SDS011;5585;52.530;7.320;2023-04-15T01:59:04;5.17;;;4.23;;
11064;SDS011;5585;52.530;7.320;2023-04-15T02:01:33;5.43;;;4.20;;
11064;SDS011;5585;52.530;7.320;2023-04-15T02:03:59;6.67;;;4.73;;
11064;SDS011;5585;52.530;7.320;2023-04-15T02:06:26;5.33;;;4.00;;
11064;SDS011;5585;52.530;7.320;2023-04-15T02:08:53;5.00;;;4.03;;
11064;SDS011;5585;52.530;7.320;2023-04-15T02:11:19;4.93;;;4.10;;
11064;SDS011;5585;52.530;7.320;2023-04-15T02:13:47;5.60;;;4.10;;
11064;SDS011;5585;52.530;7.320;2023-04-15T02:16:16;6.10;;;4.63;;
11064;SDS011;5585;52.530;7.320;2023-04-15T02:18:45;4.80;;;4.30;;
11064;SDS011;5585;52.530;7.320;2023-04-15T02:21:12;5.03;;;4.53;;
11064;SDS011;5585;52.530;7.320;2023-04-15T02:23:38;4.73;;;4.23;;
11064;SDS011;5585;52.530;7.320;2023-04-15T02:26:05;5.23;;;4.37;;
11064;SDS011;5585;52.530;7.320;2023-04-15T02:28:32;7.00;;;4.90;;
11064;SDS011;5585;52.530;7.320;2023-04-15T02:30:58;6.33;;;4.00;;
11064;SDS011;5585;52.530;7.320;2023-04-15T02:33:26;4.13;;;3.73;;
11064;SDS011;5585;52.530;7.320;2023-04-15T02:35:54;4.60;;;4.10;;
11064;SDS011;5585;52.530;7.320;2023-04-15T02:38:21;6.20;;;4.40;;
11064;SDS011;5585;52.530;7.320;2023-04-15T02:40:47;5.30;;;4.30;;
11064;SDS011;5585;52.530;7.320;2023-04-15T02:43:15;7.87;;;4.60;;
11064;SDS011;5585;52.530;7.320;2023-04-15T02:45:42;7.47;;;5.47;;
11064;SDS011;5585;52.530;7.320;2023-04-15T02:48:09;6.70;;;5.40;;
11064;SDS011;5585;52.530;7.320;2023-04-15T02:50:35;6.57;;;5.63;;
11064;SDS011;5585;52.530;7.320;2023-04-15T02:53:05;7.37;;;5.73;;
11064;SDS011;5585;52.530;7.320;2023-04-15T02:55:31;7.50;;;5.43;;
11064;SDS011;5585;52.530;7.320;2023-04-15T02:57:58;7.27;;;5.60;;
11064;SDS011;5585;52.530;7.320;2023-04-15T03:00:25;6.80;;;6.00;;
11064;SDS011;5585;52.530;7.320;2023-04-15T03:02:56;6.43;;;5.70;;
11064;SDS011;5585;52.530;7.320;2023-04-15T03:05:23;5.93;;;5.33;;
11064;SDS011;5585;52.530;7.320;2023-04-15T03:07:50;6.87;;;5.73;;
11064;SDS011;5585;52.530;7.320;2023-04-15T03:10:19;7.03;;;5.23;;
11064;SDS011;5585;52.530;7.320;2023-04-15T03:12:45;8.07;;;5.40;;
11064;SDS011;5585;52.530;7.320;2023-04-15T03:15:12;6.00;;;5.37;;
11064;SDS011;5585;52.530;7.320;2023-04-15T03:17:38;6.40;;;5.67;;
11064;SDS011;5585;52.530;7.320;2023-04-15T03:20:05;6.37;;;5.60;;
11064;SDS011;5585;52.530;7.320;2023-04-15T03:22:33;5.90;;;5.23;;
11064;SDS011;5585;52.530;7.320;2023-04-15T03:25:00;6.67;;;5.50;;
11064;SDS011;5585;52.530;7.320;2023-04-15T03:27:28;6.00;;;5.50;;
11064;SDS011;5585;52.530;7.320;2023-04-15T03:29:55;6.17;;;5.33;;
11064;SDS011;5585;52.530;7.320;2023-04-15T03:32:22;6.70;;;5.63;;
11064;SDS011;5585;52.530;7.320;2023-04-15T03:34:48;6.67;;;5.10;;
11064;SDS011;5585;52.530;7.320;2023-04-15T03:37:15;6.37;;;5.20;;
11064;SDS011;5585;52.530;7.320;2023-04-15T03:39:41;5.80;;;5.03;;
11064;SDS011;5585;52.530;7.320;2023-04-15T03:42:08;7.07;;;5.70;;
11064;SDS011;5585;52.530;7.320;2023-04-15T03:44:36;6.23;;;5.63;;
11064;SDS011;5585;52.530;7.320;2023-04-15T03:47:03;6.27;;;5.43;;
11064;SDS011;5585;52.530;7.320;2023-04-15T03:49:29;6.10;;;5.43;;
11064;SDS011;5585;52.530;7.320;2023-04-15T03:51:56;6.53;;;5.90;;
11064;SDS011;5585;52.530;7.320;2023-04-15T03:54:23;6.90;;;6.07;;
11064;SDS011;5585;52.530;7.320;2023-04-15T03:56:50;6.50;;;5.90;;
11064;SDS011;5585;52.530;7.320;2023-04-15T03:59:16;7.23;;;6.40;;
11064;SDS011;5585;52.530;7.320;2023-04-15T04:01:44;7.57;;;6.67;;
11064;SDS011;5585;52.530;7.320;2023-04-15T04:04:11;7.90;;;6.50;;
11064;SDS011;5585;52.530;7.320;2023-04-15T04:06:38;7.23;;;6.47;;
11064;SDS011;5585;52.530;7.320;2023-04-15T04:09:04;7.27;;;6.57;;
11064;SDS011;5585;52.530;7.320;2023-04-15T04:11:31;7.60;;;6.77;;
11064;SDS011;5585;52.530;7.320;2023-04-15T04:13:58;7.20;;;6.47;;
11064;SDS011;5585;52.530;7.320;2023-04-15T04:16:24;8.20;;;6.83;;
11064;SDS011;5585;52.530;7.320;2023-04-15T04:18:52;7.57;;;6.77;;
11064;SDS011;5585;52.530;7.320;2023-04-15T04:21:19;7.30;;;6.60;;
11064;SDS011;5585;52.530;7.320;2023-04-15T04:23:46;7.87;;;7.07;;
11064;SDS011;5585;52.530;7.320;2023-04-15T04:26:12;9.13;;;7.07;;
11064;SDS011;5585;52.530;7.320;2023-04-15T04:28:39;8.27;;;7.33;;
11064;SDS011;5585;52.530;7.320;2023-04-15T04:31:05;8.63;;;7.47;;
11064;SDS011;5585;52.530;7.320;2023-04-15T04:33:32;8.33;;;7.53;;
11064;SDS011;5585;52.530;7.320;2023-04-15T04:36:00;9.37;;;7.93;;
11064;SDS011;5585;52.530;7.320;2023-04-15T04:38:27;8.83;;;8.03;;
11064;SDS011;5585;52.530;7.320;2023-04-15T04:40:53;9.47;;;8.47;;
11064;SDS011;5585;52.530;7.320;2023-04-15T04:43:20;9.17;;;8.07;;
11064;SDS011;5585;52.530;7.320;2023-04-15T04:45:46;9.90;;;8.17;;
11064;SDS011;5585;52.530;7.320;2023-04-15T04:48:13;9.40;;;8.20;;
11064;SDS011;5585;52.530;7.320;2023-04-15T04:50:40;10.43;;;8.57;;
11064;SDS011;5585;52.530;7.320;2023-04-15T04:53:08;9.93;;;8.60;;
11064;SDS011;5585;52.530;7.320;2023-04-15T04:55:34;9.47;;;8.37;;
11064;SDS011;5585;52.530;7.320;2023-04-15T04:58:01;10.17;;;8.83;;
11064;SDS011;5585;52.530;7.320;2023-04-15T05:00:28;13.17;;;9.47;;
11064;SDS011;5585;52.530;7.320;2023-04-15T05:02:54;10.60;;;9.57;;
11064;SDS011;5585;52.530;7.320;2023-04-15T05:05:21;11.50;;;10.30;;
11064;SDS011;5585;52.530;7.320;2023-04-15T05:07:47;12.20;;;10.03;;
11064;SDS011;5585;52.530;7.320;2023-04-15T05:10:16;11.40;;;10.20;;
11064;SDS011;5585;52.530;7.320;2023-04-15T05:12:42;10.57;;;9.47;;
11064;SDS011;5585;52.530;7.320;2023-04-15T05:15:09;11.30;;;10.10;;
11064;SDS011;5585;52.530;7.320;2023-04-15T05:17:36;10.47;;;9.37;;
11064;SDS011;5585;52.530;7.320;2023-04-15T05:20:03;9.77;;;8.70;;
11064;SDS011;5585;52.530;7.320;2023-04-15T05:22:29;9.47;;;8.17;;
11064;SDS011;5585;52.530;7.320;2023-04-15T05:24:56;9.83;;;8.77;;
11064;SDS011;5585;52.530;7.320;2023-04-15T05:27:24;11.23;;;9.00;;
11064;SDS011;5585;52.530;7.320;2023-04-15T05:29:50;11.73;;;8.60;;
11064;SDS011;5585;52.530;7.320;2023-04-15T05:32:17;11.47;;;8.80;;
11064;SDS011;5585;52.530;7.320;2023-04-15T05:34:44;9.93;;;8.70;;
11064;SDS011;5585;52.530;7.320;2023-04-15T05:37:11;11.63;;;8.93;;
11064;SDS011;5585;52.530;7.320;2023-04-15T05:39:37;10.80;;;9.20;;
11064;SDS011;5585;52.530;7.320;2023-04-15T05:42:04;10.13;;;9.00;;
11064;SDS011;5585;52.530;7.320;2023-04-15T05:44:32;11.70;;;9.47;;
11064;SDS011;5585;52.530;7.320;2023-04-15T05:46:59;10.50;;;9.17;;
11064;SDS011;5585;52.530;7.320;2023-04-15T05:49:27;12.93;;;9.53;;
11064;SDS011;5585;52.530;7.320;2023-04-15T05:51:54;9.77;;;8.53;;
11064;SDS011;5585;52.530;7.320;2023-04-15T05:54:20;9.77;;;8.77;;
11064;SDS011;5585;52.530;7.320;2023-04-15T05:56:47;11.27;;;9.20;;
11064;SDS011;5585;52.530;7.320;2023-04-15T05:59:14;11.13;;;9.40;;
11064;SDS011;5585;52.530;7.320;2023-04-15T06:01:42;10.03;;;8.90;;
11064;SDS011;5585;52.530;7.320;2023-04-15T06:04:09;10.83;;;8.90;;
11064;SDS011;5585;52.530;7.320;2023-04-15T06:06:36;10.27;;;8.67;;
11064;SDS011;5585;52.530;7.320;2023-04-15T06:09:02;10.27;;;8.63;;
11064;SDS011;5585;52.530;7.320;2023-04-15T06:11:29;11.00;;;9.50;;
11064;SDS011;5585;52.530;7.320;2023-04-15T06:13:56;10.23;;;8.83;;
11064;SDS011;5585;52.530;7.320;2023-04-15T06:16:22;11.33;;;9.40;;
11064;SDS011;5585;52.530;7.320;2023-04-15T06:18:50;10.37;;;8.87;;
11064;SDS011;5585;52.530;7.320;2023-04-15T06:21:17;11.30;;;9.50;;
11064;SDS011;5585;52.530;7.320;2023-04-15T06:23:43;10.27;;;9.00;;
11064;SDS011;5585;52.530;7.320;2023-04-15T06:26:10;10.10;;;9.00;;
11064;SDS011;5585;52.530;7.320;2023-04-15T06:28:37;10.63;;;9.10;;
11064;SDS011;5585;52.530;7.320;2023-04-15T06:31:03;12.37;;;9.60;;
11064;SDS011;5585;52.530;7.320;2023-04-15T06:33:30;10.97;;;9.20;;
11064;SDS011;5585;52.530;7.320;2023-04-15T06:35:58;10.77;;;9.17;;
11064;SDS011;5585;52.530;7.320;2023-04-15T06:38:28;9.77;;;8.73;;
11064;SDS011;5585;52.530;7.320;2023-04-15T06:40:54;10.10;;;8.70;;
11064;SDS011;5585;52.530;7.320;2023-04-15T06:43:21;11.10;;;8.97;;
11064;SDS011;5585;52.530;7.320;2023-04-15T06:45:48;10.60;;;8.97;;
11064;SDS011;5585;52.530;7.320;2023-04-15T06:48:15;10.90;;;8.50;;
11064;SDS011;5585;52.530;7.320;2023-04-15T06:50:41;10.30;;;8.33;;
11064;SDS011;5585;52.530;7.320;2023-04-15T06:53:09;10.33;;;8.27;;
11064;SDS011;5585;52.530;7.320;2023-04-15T06:55:36;9.90;;;8.40;;
11064;SDS011;5585;52.530;7.320;2023-04-15T06:58:03;10.17;;;8.37;;
11064;SDS011;5585;52.530;7.320;2023-04-15T07:00:30;9.63;;;8.10;;
11064;SDS011;5585;52.530;7.320;2023-04-15T07:02:57;9.27;;;8.00;;
11064;SDS011;5585;52.530;7.320;2023-04-15T07:05:27;11.00;;;8.43;;
11064;SDS011;5585;52.530;7.320;2023-04-15T07:07:53;11.53;;;9.10;;
11064;SDS011;5585;52.530;7.320;2023-04-15T07:10:24;9.17;;;7.67;;
11064;SDS011;5585;52.530;7.320;2023-04-15T07:12:51;10.93;;;7.63;;
11064;SDS011;5585;52.530;7.320;2023-04-15T07:15:18;8.97;;;7.70;;
11064;SDS011;5585;52.530;7.320;2023-04-15T07:17:44;10.80;;;8.40;;
11064;SDS011;5585;52.530;7.320;2023-04-15T07:20:11;8.63;;;7.63;;
11064;SDS011;5585;52.530;7.320;2023-04-15T07:22:38;9.73;;;7.50;;
11064;SDS011;5585;52.530;7.320;2023-04-15T07:25:06;8.53;;;6.83;;
11064;SDS011;5585;52.530;7.320;2023-04-15T07:27:34;10.17;;;7.60;;
11064;SDS011;5585;52.530;7.320;2023-04-15T07:30:01;8.80;;;7.10;;
11064;SDS011;5585;52.530;7.320;2023-04-15T07:32:28;10.80;;;7.87;;
11064;SDS011;5585;52.530;7.320;2023-04-15T07:34:55;10.90;;;7.63;;
11064;SDS011;5585;52.530;7.320;2023-04-15T07:37:22;8.27;;;7.00;;
11064;SDS011;5585;52.530;7.320;2023-04-15T07:39:48;9.70;;;7.27;;
11064;SDS011;5585;52.530;7.320;2023-04-15T07:42:15;9.00;;;7.00;;
11064;SDS011;5585;52.530;7.320;2023-04-15T07:44:43;8.03;;;6.90;;
11064;SDS011;5585;52.530;7.320;2023-04-15T07:47:10;8.07;;;6.77;;
11064;SDS011;5585;52.530;7.320;2023-04-15T07:49:37;8.00;;;6.80;;
11064;SDS011;5585;52.530;7.320;2023-04-15T07:52:03;8.43;;;6.77;;
11064;SDS011;5585;52.530;7.320;2023-04-15T07:54:30;9.90;;;7.33;;
11064;SDS011;5585;52.530;7.320;2023-04-15T07:56:57;6.90;;;6.20;;
11064;SDS011;5585;52.530;7.320;2023-04-15T07:59:24;8.63;;;6.80;;
11064;SDS011;5585;52.530;7.320;2023-04-15T08:01:53;9.13;;;6.63;;
11064;SDS011;5585;52.530;7.320;2023-04-15T08:04:19;6.80;;;5.90;;
11064;SDS011;5585;52.530;7.320;2023-04-15T08:06:46;7.70;;;6.00;;
11064;SDS011;5585;52.530;7.320;2023-04-15T08:09:14;7.33;;;6.47;;
11064;SDS011;5585;52.530;7.320;2023-04-15T08:11:41;7.70;;;6.53;;
11064;SDS011;5585;52.530;7.320;2023-04-15T08:14:07;7.07;;;5.53;;
11064;SDS011;5585;52.530;7.320;2023-04-15T08:16:34;6.30;;;5.47;;
11064;SDS011;5585;52.530;7.320;2023-04-15T08:19:02;7.40;;;5.47;;
11064;SDS011;5585;52.530;7.320;2023-04-15T08:21:29;8.90;;;6.30;;
11064;SDS011;5585;52.530;7.320;2023-04-15T08:23:56;5.80;;;5.20;;
11064;SDS011;5585;52.530;7.320;2023-04-15T08:26:26;7.13;;;5.57;;
11064;SDS011;5585;52.530;7.320;2023-04-15T08:28:52;6.80;;;5.27;;
11064;SDS011;5585;52.530;7.320;2023-04-15T08:31:19;6.87;;;5.37;;
11064;SDS011;5585;52.530;7.320;2023-04-15T08:33:46;6.07;;;4.90;;
11064;SDS011;5585;52.530;7.320;2023-04-15T08:36:14;6.73;;;5.17;;
11064;SDS011;5585;52.530;7.320;2023-04-15T08:38:41;5.30;;;4.77;;
11064;SDS011;5585;52.530;7.320;2023-04-15T08:41:10;4.40;;;4.00;;
11064;SDS011;5585;52.530;7.320;2023-04-15T08:43:41;5.93;;;5.33;;
11064;SDS011;5585;52.530;7.320;2023-04-15T08:46:09;5.97;;;5.00;;
11064;SDS011;5585;52.530;7.320;2023-04-15T08:48:36;5.27;;;4.77;;
11064;SDS011;5585;52.530;7.320;2023-04-15T08:51:05;5.10;;;4.47;;
11064;SDS011;5585;52.530;7.320;2023-04-15T08:53:33;5.53;;;4.77;;
11064;SDS011;5585;52.530;7.320;2023-04-15T08:56:01;6.60;;;4.80;;
11064;SDS011;5585;52.530;7.320;2023-04-15T08:58:30;5.47;;;4.87;;
11064;SDS011;5585;52.530;7.320;2023-04-15T09:00:57;4.97;;;4.43;;
11064;SDS011;5585;52.530;7.320;2023-04-15T09:03:24;7.30;;;5.00;;
11064;SDS011;5585;52.530;7.320;2023-04-15T09:05:51;5.30;;;4.27;;
11064;SDS011;5585;52.530;7.320;2023-04-15T09:08:18;6.07;;;4.63;;
11064;SDS011;5585;52.530;7.320;2023-04-15T09:10:46;5.53;;;4.40;;
11064;SDS011;5585;52.530;7.320;2023-04-15T09:13:12;4.85;;;4.00;;
11064;SDS011;5585;52.530;7.320;2023-04-15T09:15:39;5.10;;;4.20;;
11064;SDS011;5585;52.530;7.320;2023-04-15T09:18:06;5.00;;;4.50;;
11064;SDS011;5585;52.530;7.320;2023-04-15T09:20:37;4.18;;;3.78;;
11064;SDS011;5585;52.530;7.320;2023-04-15T09:23:10;4.85;;;3.75;;
11064;SDS011;5585;52.530;7.320;2023-04-15T09:25:37;4.83;;;4.03;;
11064;SDS011;5585;52.530;7.320;2023-04-15T09:28:07;6.03;;;3.80;;
11064;SDS011;5585;52.530;7.320;2023-04-15T09:30:34;3.90;;;3.47;;
11064;SDS011;5585;52.530;7.320;2023-04-15T09:33:02;4.38;;;3.80;;
11064;SDS011;5585;52.530;7.320;2023-04-15T09:35:32;5.35;;;3.42;;
11064;SDS011;5585;52.530;7.320;2023-04-15T09:38:02;4.47;;;3.60;;
11064;SDS011;5585;52.530;7.320;2023-04-15T09:40:33;3.90;;;3.30;;
11064;SDS011;5585;52.530;7.320;2023-04-15T09:42:59;4.37;;;3.80;;
11064;SDS011;5585;52.530;7.320;2023-04-15T09:45:28;4.17;;;3.77;;
11064;SDS011;5585;52.530;7.320;2023-04-15T09:47:56;3.35;;;2.97;;
11064;SDS011;5585;52.530;7.320;2023-04-15T09:50:22;3.97;;;3.47;;
11064;SDS011;5585;52.530;7.320;2023-04-15T09:52:54;4.20;;;2.90;;
11064;SDS011;5585;52.530;7.320;2023-04-15T09:55:21;4.37;;;3.53;;
11064;SDS011;5585;52.530;7.320;2023-04-15T09:57:48;4.53;;;3.10;;
11064;SDS011;5585;52.530;7.320;2023-04-15T10:00:15;3.53;;;3.23;;
11064;SDS011;5585;52.530;7.320;2023-04-15T10:02:43;4.43;;;3.00;;
11064;SDS011;5585;52.530;7.320;2023-04-15T10:05:12;3.35;;;2.90;;
11064;SDS011;5585;52.530;7.320;2023-04-15T10:07:39;3.65;;;2.83;;
11064;SDS011;5585;52.530;7.320;2023-04-15T10:10:07;2.97;;;2.67;;
11064;SDS011;5585;52.530;7.320;2023-04-15T10:12:34;4.63;;;3.08;;
11064;SDS011;5585;52.530;7.320;2023-04-15T10:15:03;3.20;;;2.88;;
11064;SDS011;5585;52.530;7.320;2023-04-15T10:17:31;3.03;;;2.72;;
11064;SDS011;5585;52.530;7.320;2023-04-15T10:20:01;4.07;;;2.87;;
11064;SDS011;5585;52.530;7.320;2023-04-15T10:22:29;3.53;;;3.23;;
11064;SDS011;5585;52.530;7.320;2023-04-15T10:24:55;3.97;;;2.70;;
11064;SDS011;5585;52.530;7.320;2023-04-15T10:27:22;3.53;;;3.10;;
11064;SDS011;5585;52.530;7.320;2023-04-15T10:29:49;3.10;;;2.80;;
11064;SDS011;5585;52.530;7.320;2023-04-15T10:32:16;3.15;;;2.85;;
11064;SDS011;5585;52.530;7.320;2023-04-15T10:34:44;3.88;;;2.80;;
11064;SDS011;5585;52.530;7.320;2023-04-15T10:37:18;3.17;;;2.88;;
11064;SDS011;5585;52.530;7.320;2023-04-15T10:39:45;3.35;;;3.00;;
11064;SDS011;5585;52.530;7.320;2023-04-15T10:42:15;3.28;;;2.85;;
11064;SDS011;5585;52.530;7.320;2023-04-15T10:44:43;2.93;;;2.60;;
11064;SDS011;5585;52.530;7.320;2023-04-15T10:47:11;3.08;;;2.78;;
11064;SDS011;5585;52.530;7.320;2023-04-15T10:49:42;3.05;;;2.78;;
11064;SDS011;5585;52.530;7.320;2023-04-15T10:52:09;3.53;;;2.57;;
11064;SDS011;5585;52.530;7.320;2023-04-15T10:54:37;4.03;;;3.00;;
11064;SDS011;5585;52.530;7.320;2023-04-15T10:57:07;5.00;;;3.55;;
11064;SDS011;5585;52.530;7.320;2023-04-15T10:59:35;4.90;;;2.97;;
11064;SDS011;5585;52.530;7.320;2023-04-15T11:02:02;5.03;;;3.17;;
11064;SDS011;5585;52.530;7.320;2023-04-15T11:07:14;3.20;;;2.77;;
11064;SDS011;5585;52.530;7.320;2023-04-15T11:09:42;3.30;;;2.43;;
11064;SDS011;5585;52.530;7.320;2023-04-15T11:12:09;3.83;;;3.03;;
11064;SDS011;5585;52.530;7.320;2023-04-15T11:14:38;2.77;;;2.50;;
11064;SDS011;5585;52.530;7.320;2023-04-15T11:17:05;5.05;;;2.70;;
11064;SDS011;5585;52.530;7.320;2023-04-15T11:19:35;3.42;;;3.13;;
11064;SDS011;5585;52.530;7.320;2023-04-15T11:22:06;3.90;;;3.58;;
11064;SDS011;5585;52.530;7.320;2023-04-15T11:24:33;4.00;;;3.00;;
11064;SDS011;5585;52.530;7.320;2023-04-15T11:27:01;3.97;;;2.75;;
11064;SDS011;5585;52.530;7.320;2023-04-15T11:29:28;3.58;;;3.25;;
11064;SDS011;5585;52.530;7.320;2023-04-15T11:32:03;3.67;;;2.80;;
11064;SDS011;5585;52.530;7.320;2023-04-15T11:34:29;3.13;;;2.70;;
11064;SDS011;5585;52.530;7.320;2023-04-15T11:36:57;4.90;;;3.00;;
11064;SDS011;5585;52.530;7.320;2023-04-15T11:39:24;3.10;;;2.75;;
11064;SDS011;5585;52.530;7.320;2023-04-15T11:41:50;3.13;;;2.83;;
11064;SDS011;5585;52.530;7.320;2023-04-15T11:44:18;3.90;;;2.70;;
11064;SDS011;5585;52.530;7.320;2023-04-15T11:46:45;2.42;;;2.22;;
11064;SDS011;5585;52.530;7.320;2023-04-15T11:49:24;4.10;;;2.70;;
11064;SDS011;5585;52.530;7.320;2023-04-15T11:51:51;3.83;;;2.80;;
11064;SDS011;5585;52.530;7.320;2023-04-15T11:54:18;3.35;;;2.05;;
11064;SDS011;5585;52.530;7.320;2023-04-15T11:56:48;3.83;;;2.20;;
11064;SDS011;5585;52.530;7.320;2023-04-15T11:59:15;3.92;;;2.40;;
11064;SDS011;5585;52.530;7.320;2023-04-15T12:01:43;2.15;;;1.85;;
11064;SDS011;5585;52.530;7.320;2023-04-15T12:04:12;3.10;;;2.30;;
11064;SDS011;5585;52.530;7.320;2023-04-15T12:06:38;2.38;;;2.00;;
11064;SDS011;5585;52.530;7.320;2023-04-15T12:09:09;2.60;;;2.35;;
11064;SDS011;5585;52.530;7.320;2023-04-15T12:11:40;2.28;;;1.80;;
11064;SDS011;5585;52.530;7.320;2023-04-15T12:14:08;2.38;;;2.17;;
11064;SDS011;5585;52.530;7.320;2023-04-15T12:16:35;2.70;;;2.22;;
11064;SDS011;5585;52.530;7.320;2023-04-15T12:19:05;2.25;;;2.05;;
11064;SDS011;5585;52.530;7.320;2023-04-15T12:21:36;2.63;;;1.80;;
11064;SDS011;5585;52.530;7.320;2023-04-15T12:24:04;3.15;;;2.13;;
11064;SDS011;5585;52.530;7.320;2023-04-15T12:26:33;2.47;;;1.90;;
11064;SDS011;5585;52.530;7.320;2023-04-15T12:29:00;3.00;;;1.75;;
11064;SDS011;5585;52.530;7.320;2023-04-15T12:31:26;2.63;;;1.98;;
11064;SDS011;5585;52.530;7.320;2023-04-15T12:33:54;2.33;;;1.90;;
11064;SDS011;5585;52.530;7.320;2023-04-15T12:36:22;2.30;;;1.70;;
11064;SDS011;5585;52.530;7.320;2023-04-15T12:38:49;1.90;;;1.80;;
11064;SDS011;5585;52.530;7.320;2023-04-15T12:41:15;2.80;;;1.80;;
11064;SDS011;5585;52.530;7.320;2023-04-15T12:43:43;2.50;;;1.73;;
11064;SDS011;5585;52.530;7.320;2023-04-15T12:46:09;3.65;;;2.25;;
11064;SDS011;5585;52.530;7.320;2023-04-15T12:48:36;1.70;;;1.60;;
11064;SDS011;5585;52.530;7.320;2023-04-15T12:51:02;3.55;;;1.77;;
11064;SDS011;5585;52.530;7.320;2023-04-15T12:53:31;3.25;;;1.77;;
11064;SDS011;5585;52.530;7.320;2023-04-15T12:55:57;2.50;;;1.90;;
11064;SDS011;5585;52.530;7.320;2023-04-15T12:58:24;2.38;;;1.75;;
11064;SDS011;5585;52.530;7.320;2023-04-15T13:00:51;1.63;;;1.50;;
11064;SDS011;5585;52.530;7.320;2023-04-15T13:03:18;3.30;;;2.10;;
11064;SDS011;5585;52.530;7.320;2023-04-15T13:05:44;1.80;;;1.42;;
11064;SDS011;5585;52.530;7.320;2023-04-15T13:08:11;2.50;;;1.90;;
11064;SDS011;5585;52.530;7.320;2023-04-15T13:10:39;2.65;;;1.90;;
11064;SDS011;5585;52.530;7.320;2023-04-15T13:13:06;1.80;;;1.60;;
11064;SDS011;5585;52.530;7.320;2023-04-15T13:15:33;2.17;;;1.70;;
11064;SDS011;5585;52.530;7.320;2023-04-15T13:18:00;1.55;;;1.45;;
11064;SDS011;5585;52.530;7.320;2023-04-15T13:20:26;2.70;;;1.48;;
11064;SDS011;5585;52.530;7.320;2023-04-15T13:22:53;1.67;;;1.50;;
11064;SDS011;5585;52.530;7.320;2023-04-15T13:25:20;1.63;;;1.35;;
11064;SDS011;5585;52.530;7.320;2023-04-15T13:27:48;2.37;;;1.50;;
11064;SDS011;5585;52.530;7.320;2023-04-15T13:30:15;3.85;;;1.60;;
11064;SDS011;5585;52.530;7.320;2023-04-15T13:32:41;1.98;;;1.60;;
11064;SDS011;5585;52.530;7.320;2023-04-15T13:35:08;1.75;;;1.40;;
11064;SDS011;5585;52.530;7.320;2023-04-15T13:37:35;3.27;;;1.43;;
11064;SDS011;5585;52.530;7.320;2023-04-15T13:40:01;2.33;;;1.50;;
11064;SDS011;5585;52.530;7.320;2023-04-15T13:42:31;3.37;;;1.60;;
11064;SDS011;5585;52.530;7.320;2023-04-15T13:44:59;2.20;;;1.35;;
11064;SDS011;5585;52.530;7.320;2023-04-15T13:47:26;1.40;;;1.20;;
11064;SDS011;5585;52.530;7.320;2023-04-15T13:49:52;3.47;;;1.25;;
11064;SDS011;5585;52.530;7.320;2023-04-15T13:52:20;2.60;;;1.50;;
11064;SDS011;5585;52.530;7.320;2023-04-15T13:54:47;2.00;;;1.83;;
11064;SDS011;5585;52.530;7.320;2023-04-15T13:57:13;2.37;;;1.30;;
11064;SDS011;5585;52.530;7.320;2023-04-15T13:59:40;2.17;;;1.30;;
11064;SDS011;5585;52.530;7.320;2023-04-15T14:02:09;3.65;;;1.27;;
11064;SDS011;5585;52.530;7.320;2023-04-15T14:04:36;1.80;;;1.20;;
11064;SDS011;5585;52.530;7.320;2023-04-15T14:07:05;1.88;;;1.00;;
11064;SDS011;5585;52.530;7.320;2023-04-15T14:09:32;2.73;;;1.20;;
11064;SDS011;5585;52.530;7.320;2023-04-15T14:11:58;1.85;;;1.20;;
11064;SDS011;5585;52.530;7.320;2023-04-15T14:14:26;1.73;;;0.90;;
11064;SDS011;5585;52.530;7.320;2023-04-15T14:16:53;2.67;;;1.40;;
11064;SDS011;5585;52.530;7.320;2023-04-15T14:19:21;2.53;;;1.23;;
11064;SDS011;5585;52.530;7.320;2023-04-15T14:21:48;2.38;;;1.45;;
11064;SDS011;5585;52.530;7.320;2023-04-15T14:24:14;3.63;;;1.40;;
11064;SDS011;5585;52.530;7.320;2023-04-15T14:26:41;2.50;;;1.30;;
11064;SDS011;5585;52.530;7.320;2023-04-15T14:29:08;4.20;;;1.50;;
11064;SDS011;5585;52.530;7.320;2023-04-15T14:31:35;2.47;;;1.37;;
11064;SDS011;5585;52.530;7.320;2023-04-15T14:34:01;2.50;;;1.70;;
11064;SDS011;5585;52.530;7.320;2023-04-15T14:36:29;2.63;;;1.80;;
11064;SDS011;5585;52.530;7.320;2023-04-15T14:38:56;5.30;;;1.77;;
11064;SDS011;5585;52.530;7.320;2023-04-15T14:41:23;2.87;;;1.60;;
11064;SDS011;5585;52.530;7.320;2023-04-15T14:43:49;3.40;;;1.80;;
11064;SDS011;5585;52.530;7.320;2023-04-15T14:46:16;3.03;;;1.87;;
11064;SDS011;5585;52.530;7.320;2023-04-15T14:48:42;5.87;;;2.90;;
11064;SDS011;5585;52.530;7.320;2023-04-15T14:51:09;3.67;;;2.10;;
11064;SDS011;5585;52.530;7.320;2023-04-15T14:53:37;6.37;;;2.30;;
11064;SDS011;5585;52.530;7.320;2023-04-15T14:56:03;4.93;;;2.27;;
11064;SDS011;5585;52.530;7.320;2023-04-15T14:58:30;3.83;;;1.90;;
11064;SDS011;5585;52.530;7.320;2023-04-15T15:00:57;3.60;;;2.00;;
11064;SDS011;5585;52.530;7.320;2023-04-15T15:03:24;3.17;;;1.53;;